Time;durP1;ratioP1;P1;durP2;ratioP2;P2;SDS_P1;SDS_P2;PMS_P1;PMS_P2;Temp;Humidity;BMP_temperature;BMP_pressure;BME280_temperature;BME280_humidity;BME280_pressure;Samples;Min_cycle;Max_cycle;Signal;HPM_P1;HPM_P2
2024/04/03 00:04:26;;;;;;;0.40;0.40;;;11.70;84.00;;;;;;10455933;28;20261;-75
2024/04/03 00:09:28;;;;;;;0.40;0.40;;;11.60;84.20;;;;;;10453211;28;20623;-75
2024/04/03 00:14:32;;;;;;;0.40;0.40;;;11.60;85.00;;;;;;10455276;28;20221;-76
2024/04/03 00:19:34;;;;;;;0.40;0.40;;;11.50;85.10;;;;;;10455168;28;20209;-76
2024/04/03 00:24:36;;;;;;;0.40;0.40;;;11.50;85.40;;;;;;10449760;28;20271;-75
2024/04/03 00:29:40;;;;;;;0.40;0.40;;;11.40;85.80;;;;;;10455620;28;20251;-76
2024/04/03 00:34:42;;;;;;;0.40;0.40;;;11.40;86.10;;;;;;10453901;28;20784;-75
2024/04/03 00:39:45;;;;;;;0.40;0.40;;;11.30;87.30;;;;;;10445756;28;20208;-76
2024/04/03 00:44:49;;;;;;;0.50;0.50;;;11.30;87.50;;;;;;10453727;28;20278;-76
2024/04/03 00:49:52;;;;;;;0.50;0.50;;;11.40;87.10;;;;;;10453778;28;20209;-76
2024/04/03 00:54:54;;;;;;;0.50;0.50;;;11.40;87.80;;;;;;10453497;28;20221;-76
2024/04/03 00:59:58;;;;;;;0.60;0.60;;;11.30;88.20;;;;;;10450198;28;20205;-76
2024/04/03 01:05:00;;;;;;;0.40;0.40;;;11.30;88.80;;;;;;10467688;22;20234;-80
2024/04/03 01:10:03;;;;;;;0.50;0.50;;;11.20;88.90;;;;;;10465000;28;20626;-80
2024/04/03 01:15:10;;;;;;;0.60;0.60;;;11.30;89.90;;;;;;10446844;28;20221;-81
2024/04/03 01:20:12;;;;;;;0.40;0.40;;;11.20;89.20;;;;;;10458000;28;20205;-79
2024/04/03 01:25:16;;;;;;;0.50;0.50;;;11.30;88.80;;;;;;10454948;28;20217;-78
2024/04/03 01:30:18;;;;;;;0.40;0.40;;;11.30;88.50;;;;;;10416851;28;20280;-82
2024/04/03 01:35:21;;;;;;;0.50;0.50;;;11.40;88.20;;;;;;10420736;28;20218;-81
2024/04/03 01:40:24;;;;;;;0.40;0.40;;;11.50;88.30;;;;;;10422947;28;20202;-81
2024/04/03 01:45:27;;;;;;;0.47;0.47;;;11.50;89.00;;;;;;10418069;28;20256;-80
2024/04/03 01:50:37;;;;;;;0.40;0.40;;;11.50;87.90;;;;;;10429311;28;20334;-81
2024/04/03 01:55:41;;;;;;;0.70;0.70;;;11.50;87.90;;;;;;10459426;28;20221;-80
2024/04/03 02:00:43;;;;;;;0.60;0.60;;;11.50;88.30;;;;;;10455522;28;20197;-81
2024/04/03 02:05:47;;;;;;;0.70;0.70;;;11.40;88.00;;;;;;10444628;28;20228;-80
2024/04/03 02:10:50;;;;;;;0.60;0.60;;;11.40;87.90;;;;;;10453342;28;20209;-81
2024/04/03 02:15:53;;;;;;;0.60;0.60;;;11.40;88.50;;;;;;10462852;28;20233;-80
2024/04/03 02:20:55;;;;;;;0.60;0.60;;;11.30;88.50;;;;;;10452799;28;20206;-80
2024/04/03 02:25:59;;;;;;;0.90;0.90;;;11.30;88.70;;;;;;10458913;28;20240;-80
2024/04/03 02:31:02;;;;;;;0.60;0.60;;;11.20;88.70;;;;;;10454885;28;20270;-79
2024/04/03 02:36:10;;;;;;;0.60;0.60;;;11.20;88.60;;;;;;10460517;28;20244;-80
2024/04/03 02:41:14;;;;;;;0.80;0.80;;;11.30;89.10;;;;;;10445935;28;20228;-80
2024/04/03 02:46:17;;;;;;;0.70;0.70;;;11.30;89.00;;;;;;10457160;28;20653;-81
2024/04/03 02:51:19;;;;;;;0.60;0.60;;;11.30;87.90;;;;;;10459101;28;20209;-80
2024/04/03 02:56:23;;;;;;;0.70;0.70;;;11.40;87.80;;;;;;10458330;28;20251;-81
2024/04/03 03:01:25;;;;;;;0.80;0.80;;;11.40;88.50;;;;;;10460640;28;20671;-80
2024/04/03 03:06:27;;;;;;;0.90;0.90;;;11.50;88.70;;;;;;10463511;28;20233;-81
2024/04/03 03:11:31;;;;;;;0.93;0.93;;;11.50;89.10;;;;;;10457985;28;20196;-81
2024/04/03 03:16:33;;;;;;;1.20;1.20;;;11.50;88.30;;;;;;10468167;28;20225;-80
2024/04/03 03:21:35;;;;;;;0.83;0.83;;;11.50;88.90;;;;;;10467917;28;20548;-81
2024/04/03 03:26:39;;;;;;;0.90;0.90;;;11.50;89.00;;;;;;10468602;28;20220;-81
2024/04/03 03:31:41;;;;;;;0.57;0.57;;;11.50;89.00;;;;;;10468312;28;20201;-81
2024/04/03 03:36:44;;;;;;;0.90;0.90;;;11.60;88.50;;;;;;10468474;28;20229;-81
2024/04/03 03:41:47;;;;;;;1.00;1.00;;;11.60;88.60;;;;;;10467968;28;20623;-81
2024/04/03 03:46:50;;;;;;;1.00;1.00;;;11.60;88.30;;;;;;10468036;28;20217;-81
2024/04/03 03:57:15;;;;;;;1.00;1.00;;;11.60;88.90;;;;;;10451026;28;20225;-80
2024/04/03 04:02:19;;;;;;;1.00;1.00;;;11.60;89.60;;;;;;10435332;28;20275;-81
2024/04/03 04:07:23;;;;;;;1.03;1.03;;;11.60;89.50;;;;;;10453345;28;20279;-81
2024/04/03 04:12:27;;;;;;;1.03;1.03;;;11.50;89.60;;;;;;10461926;28;20208;-81
2024/04/03 04:17:29;;;;;;;1.20;1.20;;;11.60;88.70;;;;;;10464978;28;20710;-81
2024/04/03 04:22:32;;;;;;;0.90;0.90;;;11.50;88.50;;;;;;10452100;28;20213;-81
2024/04/03 04:27:35;;;;;;;1.00;1.00;;;11.60;87.90;;;;;;10468390;28;20213;-81
2024/04/03 04:32:38;;;;;;;0.80;0.80;;;11.60;88.50;;;;;;10466661;28;20205;-81
2024/04/03 04:37:40;;;;;;;0.80;0.80;;;11.60;88.40;;;;;;10455485;28;20240;-81
2024/04/03 04:42:44;;;;;;;0.70;0.70;;;11.60;88.20;;;;;;10469471;28;20201;-81
2024/04/03 04:47:47;;;;;;;1.10;1.10;;;11.60;87.50;;;;;;10463953;28;20275;-80
2024/04/03 04:52:49;;;;;;;0.80;0.80;;;11.70;88.00;;;;;;10466796;28;20209;-81
2024/04/03 04:57:53;;;;;;;0.70;0.70;;;11.70;88.00;;;;;;10479431;28;20222;-81
2024/04/03 05:02:55;;;;;;;0.70;0.70;;;11.70;87.60;;;;;;10497461;28;20196;-81
2024/04/03 05:07:57;;;;;;;0.80;0.80;;;11.70;87.90;;;;;;10493674;28;20225;-82
2024/04/03 05:13:01;;;;;;;0.83;0.83;;;11.70;87.50;;;;;;10417110;28;20210;-82
2024/04/03 05:18:04;;;;;;;0.90;0.90;;;11.70;88.30;;;;;;10420387;28;20267;-83
2024/04/03 05:23:06;;;;;;;0.70;0.70;;;11.70;86.90;;;;;;10429104;28;20193;-81
2024/04/03 05:28:10;;;;;;;0.80;0.80;;;11.70;86.80;;;;;;10445529;28;20225;-81
2024/04/03 05:33:12;;;;;;;0.80;0.80;;;11.80;87.20;;;;;;10458507;28;20197;-81
2024/04/03 05:38:15;;;;;;;0.80;0.80;;;11.80;87.20;;;;;;10444957;28;20247;-81
2024/04/03 05:43:19;;;;;;;0.80;0.80;;;11.80;87.20;;;;;;10448417;28;20201;-81
2024/04/03 05:48:21;;;;;;;0.70;0.70;;;11.90;87.60;;;;;;10424660;28;20213;-80
2024/04/03 05:53:24;;;;;;;1.00;1.00;;;11.90;87.90;;;;;;10416779;28;20197;-80
2024/04/03 05:58:28;;;;;;;0.60;0.60;;;12.00;86.60;;;;;;10445795;28;20588;-80
2024/04/03 06:03:30;;;;;;;0.70;0.70;;;12.00;84.50;;;;;;10434321;28;20205;-80
2024/04/03 06:08:33;;;;;;;0.70;0.70;;;12.10;84.40;;;;;;10444590;28;20229;-81
2024/04/03 06:13:37;;;;;;;0.70;0.70;;;12.00;89.40;;;;;;10447590;28;20725;-81
2024/04/03 06:18:39;;;;;;;0.60;0.60;;;11.80;90.40;;;;;;10434761;28;20233;-80
2024/04/03 06:23:41;;;;;;;0.70;0.70;;;11.70;91.30;;;;;;10450037;28;20201;-80
2024/04/03 06:28:46;;;;;;;0.70;0.70;;;11.80;91.20;;;;;;10450340;28;20217;-80
2024/04/03 06:33:50;;;;;;;0.60;0.60;;;11.90;91.30;;;;;;10438721;28;20469;-81
2024/04/03 06:38:53;;;;;;;0.60;0.60;;;12.00;91.10;;;;;;10443446;28;20222;-81
2024/04/03 06:43:56;;;;;;;0.67;0.67;;;12.10;90.90;;;;;;10435135;28;20607;-81
2024/04/03 06:48:59;;;;;;;0.80;0.80;;;12.30;91.30;;;;;;10442448;28;20221;-81
2024/04/03 06:54:03;;;;;;;0.60;0.60;;;12.40;91.00;;;;;;10446264;28;20231;-82
2024/04/03 06:59:07;;;;;;;0.60;0.60;;;12.50;89.30;;;;;;10441638;28;20225;-81
2024/04/03 07:04:10;;;;;;;0.60;0.60;;;12.60;88.90;;;;;;10450205;28;20190;-82
2024/04/03 07:09:12;;;;;;;0.70;0.70;;;12.50;90.20;;;;;;10441529;28;21287;-81
2024/04/03 07:14:17;;;;;;;0.60;0.60;;;12.50;90.20;;;;;;10434356;28;20679;-81
2024/04/03 07:19:19;;;;;;;0.60;0.60;;;12.60;90.20;;;;;;10448998;28;20212;-82
2024/04/03 07:24:22;;;;;;;0.60;0.60;;;12.60;89.60;;;;;;10457201;28;20193;-81
2024/04/03 07:29:26;;;;;;;0.60;0.60;;;12.60;89.10;;;;;;10438837;28;20194;-81
2024/04/03 07:34:28;;;;;;;0.40;0.40;;;12.70;90.00;;;;;;10441618;28;20197;-81
2024/04/03 07:39:31;;;;;;;0.40;0.40;;;12.80;90.10;;;;;;10427800;28;20590;-81
2024/04/03 07:44:34;;;;;;;0.40;0.40;;;12.80;90.10;;;;;;10427979;28;20239;-81
2024/04/03 07:49:37;;;;;;;0.40;0.40;;;12.90;90.00;;;;;;10434294;28;20730;-82
2024/04/03 07:54:39;;;;;;;0.40;0.40;;;13.10;91.30;;;;;;10429397;28;20230;-80
2024/04/03 07:59:43;;;;;;;0.40;0.40;;;13.20;91.20;;;;;;10446678;28;20221;-81
2024/04/03 08:04:45;;;;;;;0.40;0.40;;;13.20;90.60;;;;;;10445481;28;20343;-82
2024/04/03 08:09:48;;;;;;;0.40;0.40;;;13.30;90.90;;;;;;10425227;28;20190;-82
2024/04/03 08:14:52;;;;;;;0.40;0.40;;;13.40;90.70;;;;;;10445298;28;20224;-82
2024/04/03 08:19:55;;;;;;;0.40;0.40;;;13.50;90.70;;;;;;10453926;28;20213;-82
2024/04/03 08:24:57;;;;;;;0.40;0.40;;;13.60;90.40;;;;;;10446937;28;20226;-82
2024/04/03 08:30:02;;;;;;;0.30;0.30;;;13.80;90.40;;;;;;10440452;28;20199;-82
2024/04/03 08:35:05;;;;;;;0.40;0.40;;;13.90;89.60;;;;;;10446782;28;20244;-81
2024/04/03 08:40:12;;;;;;;0.40;0.40;;;14.20;90.10;;;;;;10452608;28;20213;-82
2024/04/03 08:45:22;;;;;;;0.40;0.40;;;14.40;88.70;;;;;;10448454;28;20226;-82
2024/04/03 08:50:26;;;;;;;0.40;0.40;;;14.50;87.00;;;;;;10444387;28;20205;-82
2024/04/03 08:55:29;;;;;;;0.40;0.40;;;14.80;85.30;;;;;;10434576;28;20220;-82
2024/04/03 09:00:34;;;;;;;0.40;0.40;;;14.90;85.00;;;;;;10453531;28;20623;-83
2024/04/03 09:05:36;;;;;;;0.40;0.40;;;14.90;84.20;;;;;;10457241;28;20270;-83
2024/04/03 09:10:43;;;;;;;0.50;0.50;;;15.00;83.10;;;;;;10459427;28;20205;-83
2024/04/03 09:15:52;;;;;;;0.50;0.50;;;15.00;84.10;;;;;;10466699;28;20702;-83
2024/04/03 09:20:55;;;;;;;0.50;0.50;;;15.10;84.60;;;;;;10468448;28;20193;-83
2024/04/03 09:25:57;;;;;;;0.40;0.40;;;15.20;84.10;;;;;;10459140;28;20217;-83
2024/04/03 09:31:01;;;;;;;0.40;0.40;;;15.50;84.40;;;;;;10463747;28;20205;-84
2024/04/03 09:36:06;;;;;;;0.40;0.40;;;15.70;84.90;;;;;;10455060;28;20205;-84
2024/04/03 09:41:09;;;;;;;0.40;0.40;;;16.00;84.20;;;;;;10466534;28;20189;-82
2024/04/03 09:46:14;;;;;;;0.40;0.40;;;16.20;83.90;;;;;;10439665;28;20651;-82
2024/04/03 09:51:18;;;;;;;0.30;0.30;;;16.40;81.90;;;;;;10465012;28;20271;-82
2024/04/03 09:56:20;;;;;;;0.30;0.30;;;16.50;82.10;;;;;;10463207;28;20236;-81
2024/04/03 10:01:28;;;;;;;0.40;0.40;;;16.50;82.80;;;;;;10454167;28;20198;-82
2024/04/03 10:06:36;;;;;;;0.40;0.40;;;16.60;82.70;;;;;;10463917;28;20240;-84
2024/04/03 10:11:45;;;;;;;0.50;0.50;;;16.50;80.10;;;;;;10468793;28;20228;-84
2024/04/03 10:16:49;;;;;;;0.40;0.40;;;16.40;79.10;;;;;;10458972;28;20229;-84
2024/04/03 10:21:51;;;;;;;0.40;0.40;;;16.40;80.00;;;;;;10468238;28;20201;-84
2024/04/03 10:26:56;;;;;;;0.40;0.40;;;16.30;80.70;;;;;;10463563;28;20224;-85
2024/04/03 10:32:00;;;;;;;0.40;0.40;;;16.30;84.80;;;;;;10456809;28;20197;-82
2024/04/03 10:37:03;;;;;;;0.40;0.40;;;16.00;88.90;;;;;;10464975;28;20633;-82
2024/04/03 10:42:07;;;;;;;0.50;0.50;;;15.80;87.70;;;;;;10454048;28;20197;-84
2024/04/03 10:47:12;;;;;;;0.50;0.50;;;15.60;89.70;;;;;;10454387;28;20217;-84
2024/04/03 10:52:16;;;;;;;0.50;0.50;;;15.60;90.30;;;;;;10454752;28;20212;-84
2024/04/03 10:57:18;;;;;;;0.50;0.50;;;15.50;89.50;;;;;;10455784;28;20228;-83
2024/04/03 11:02:22;;;;;;;0.40;0.40;;;15.50;90.90;;;;;;10456553;28;20675;-83
2024/04/03 11:07:24;;;;;;;0.40;0.40;;;15.70;91.30;;;;;;10448654;28;20287;-82
2024/04/03 11:12:27;;;;;;;0.50;0.50;;;15.90;91.10;;;;;;10448896;28;20225;-83
2024/04/03 11:17:31;;;;;;;0.50;0.50;;;16.00;90.30;;;;;;10456664;28;20228;-83
2024/04/03 11:22:34;;;;;;;0.50;0.50;;;16.20;89.40;;;;;;10452828;28;20250;-82
2024/04/03 11:27:36;;;;;;;0.40;0.40;;;16.20;88.50;;;;;;10455952;28;20758;-82
2024/04/03 11:32:40;;;;;;;0.40;0.40;;;16.20;85.30;;;;;;10431940;28;20209;-83
2024/04/03 11:37:42;;;;;;;0.40;0.40;;;16.00;85.50;;;;;;10467459;28;20236;-84
2024/04/03 11:42:44;;;;;;;0.40;0.40;;;16.00;85.30;;;;;;10498041;28;20190;-84
2024/04/03 11:47:48;;;;;;;0.50;0.50;;;15.80;86.70;;;;;;10500773;28;20215;-83
2024/04/03 11:52:50;;;;;;;0.40;0.40;;;15.50;90.30;;;;;;10484902;28;20201;-83
2024/04/03 11:57:53;;;;;;;0.40;0.40;;;15.30;91.10;;;;;;10465202;28;20328;-83
2024/04/03 12:02:56;;;;;;;0.57;0.57;;;15.30;91.20;;;;;;10467350;28;20258;-83
2024/04/03 12:07:59;;;;;;;0.40;0.40;;;15.50;91.20;;;;;;10466800;28;20229;-83
2024/04/03 12:13:01;;;;;;;0.50;0.50;;;15.60;91.10;;;;;;10460811;28;20263;-83
2024/04/03 12:18:10;;;;;;;0.43;0.43;;;15.70;91.20;;;;;;10463980;28;20253;-83
2024/04/03 12:23:12;;;;;;;0.40;0.40;;;15.50;91.90;;;;;;10471286;28;20201;-81
2024/04/03 12:28:14;;;;;;;0.57;0.57;;;15.10;92.90;;;;;;10455833;28;20213;-82
2024/04/03 12:33:18;;;;;;;0.40;0.40;;;14.90;93.20;;;;;;10458265;28;20197;-83
2024/04/03 12:38:20;;;;;;;0.60;0.60;;;14.90;94.20;;;;;;10449043;28;20214;-83
2024/04/03 12:43:23;;;;;;;0.50;0.50;;;14.90;93.50;;;;;;10469987;28;20205;-83
2024/04/03 12:48:27;;;;;;;0.50;0.50;;;14.90;93.90;;;;;;10472168;28;20221;-83
2024/04/03 12:53:30;;;;;;;0.63;0.63;;;14.70;94.20;;;;;;10472824;28;20251;-83
2024/04/03 12:58:32;;;;;;;0.70;0.70;;;14.60;94.10;;;;;;10460472;28;20263;-82
2024/04/03 13:03:36;;;;;;;0.60;0.60;;;14.50;94.80;;;;;;10447399;28;20209;-83
2024/04/03 13:08:38;;;;;;;0.60;0.60;;;14.40;95.20;;;;;;10507708;22;20229;-79
2024/04/03 13:13:40;;;;;;;0.60;0.60;;;14.20;95.10;;;;;;10505535;28;20209;-79
2024/04/03 13:18:44;;;;;;;0.70;0.70;;;13.90;95.10;;;;;;10488940;28;20232;-79
2024/04/03 13:23:46;;;;;;;0.60;0.60;;;13.80;96.40;;;;;;10504625;28;20204;-78
2024/04/03 13:28:49;;;;;;;0.60;0.60;;;13.80;96.20;;;;;;10488307;28;20230;-78
2024/04/03 13:33:54;;;;;;;0.90;0.90;;;13.80;96.90;;;;;;10485425;28;20686;-79
2024/04/03 13:38:57;;;;;;;1.40;1.40;;;13.60;97.70;;;;;;10494326;28;20705;-80
2024/04/03 13:43:59;;;;;;;1.40;1.40;;;13.50;97.90;;;;;;10482029;28;20210;-78
2024/04/03 13:49:04;;;;;;;1.90;1.90;;;13.40;98.60;;;;;;10485038;28;20274;-78
2024/04/03 13:54:06;;;;;;;1.70;1.70;;;13.40;98.90;;;;;;10483028;28;20549;-80
2024/04/03 13:59:08;;;;;;;2.77;2.77;;;13.30;99.90;;;;;;10483267;28;20220;-80
2024/04/03 14:04:12;;;;;;;2.40;2.40;;;13.30;99.90;;;;;;10484454;28;20200;-78
2024/04/03 14:09:16;;;;;;;2.90;2.90;;;13.30;99.90;;;;;;10489090;28;20276;-80
2024/04/03 14:14:18;;;;;;;2.70;2.70;;;13.20;99.90;;;;;;10486377;28;20188;-78
2024/04/03 14:19:22;;;;;;;3.00;3.00;;;13.20;99.90;;;;;;10490567;28;20273;-79
2024/04/03 14:24:24;;;;;;;2.80;2.80;;;13.10;99.90;;;;;;10483970;28;20627;-80
2024/04/03 14:29:27;;;;;;;3.00;3.00;;;13.10;99.90;;;;;;10489195;28;20247;-79
2024/04/03 14:34:31;;;;;;;2.80;2.80;;;13.10;99.90;;;;;;10488348;28;20258;-80
2024/04/03 14:39:33;;;;;;;2.63;2.63;;;13.00;99.90;;;;;;10489298;28;20224;-79
2024/04/03 14:44:35;;;;;;;2.50;2.50;;;13.10;99.90;;;;;;10474866;28;20619;-80
2024/04/03 14:49:39;;;;;;;2.30;2.30;;;13.20;99.90;;;;;;10494295;28;20221;-79
2024/04/03 14:54:43;;;;;;;2.10;2.10;;;13.20;99.90;;;;;;10495732;28;20201;-80
2024/04/03 14:59:45;;;;;;;2.50;2.50;;;13.20;99.90;;;;;;10476648;28;20236;-80
2024/04/03 15:04:49;;;;;;;3.10;3.10;;;13.10;99.90;;;;;;10480935;28;20198;-80
2024/04/03 15:09:53;;;;;;;3.30;3.30;;;13.10;99.90;;;;;;10488011;28;20266;-80
2024/04/03 15:14:56;;;;;;;3.67;3.67;;;13.10;99.90;;;;;;10491971;28;20205;-79
2024/04/03 15:20:00;;;;;;;3.57;3.57;;;13.10;99.90;;;;;;10482338;28;20282;-78
2024/04/03 15:25:02;;;;;;;3.00;3.00;;;13.10;99.90;;;;;;10479836;28;20584;-79
2024/04/03 15:30:07;;;;;;;4.20;4.20;;;13.10;99.90;;;;;;10489575;28;20193;-77
2024/04/03 15:35:11;;;;;;;4.10;4.10;;;13.10;99.90;;;;;;10480174;28;20193;-79
2024/04/03 15:40:13;;;;;;;4.30;4.30;;;13.00;99.90;;;;;;10486657;28;20282;-77
2024/04/03 15:45:15;;;;;;;4.80;4.80;;;13.00;99.90;;;;;;10474148;28;20228;-79
2024/04/03 15:50:19;;;;;;;4.60;4.60;;;13.00;99.90;;;;;;10483209;28;20205;-77
2024/04/03 15:55:22;;;;;;;4.90;4.90;;;13.00;99.90;;;;;;10477262;28;20626;-79
2024/04/03 16:00:24;;;;;;;4.23;4.23;;;12.90;99.90;;;;;;10484711;28;20217;-79
2024/04/03 16:05:28;;;;;;;4.70;4.70;;;12.90;99.90;;;;;;10479014;28;20240;-79
2024/04/03 16:10:30;;;;;;;4.40;4.40;;;12.90;99.90;;;;;;10488572;28;20252;-80
2024/04/03 16:15:33;;;;;;;2.33;2.33;;;12.90;99.90;;;;;;10490715;28;20702;-80
2024/04/03 16:20:36;;;;;;;3.70;3.70;;;12.90;99.90;;;;;;10497200;28;20289;-81
2024/04/03 16:25:39;;;;;;;3.30;3.30;;;12.90;99.90;;;;;;10492250;28;20247;-81
2024/04/03 16:30:41;;;;;;;3.47;3.47;;;12.90;99.90;;;;;;10498960;28;20696;-82
2024/04/03 16:35:45;;;;;;;3.03;3.03;;;12.90;99.90;;;;;;10494838;28;20223;-79
2024/04/03 16:40:47;;;;;;;3.40;3.40;;;12.90;99.90;;;;;;10500907;28;20224;-81
2024/04/03 16:45:50;;;;;;;2.40;2.40;;;12.80;99.90;;;;;;10487689;28;20299;-78
2024/04/03 16:50:53;;;;;;;2.70;2.70;;;12.90;99.90;;;;;;10497386;28;20213;-81
2024/04/03 16:55:56;;;;;;;2.60;2.60;;;13.00;99.90;;;;;;10484826;28;20749;-80
2024/04/03 17:01:02;;;;;;;2.17;2.17;;;13.10;99.90;;;;;;10490453;28;20216;-79
2024/04/03 17:06:07;;;;;;;2.10;2.10;;;13.20;99.90;;;;;;10481366;28;20716;-81
2024/04/03 17:11:11;;;;;;;1.87;1.87;;;13.20;99.90;;;;;;10488731;28;20504;-80
2024/04/03 17:16:14;;;;;;;2.20;2.20;;;13.20;99.90;;;;;;10503449;28;20235;-78
2024/04/03 17:21:17;;;;;;;1.93;1.93;;;13.20;99.90;;;;;;10497691;28;20220;-78
2024/04/03 17:26:20;;;;;;;1.80;1.80;;;13.20;99.90;;;;;;10486505;28;20251;-78
2024/04/03 17:31:22;;;;;;;1.83;1.83;;;13.10;99.90;;;;;;10493971;28;20212;-79
2024/04/03 17:36:26;;;;;;;1.30;1.30;;;13.00;99.90;;;;;;10489484;28;20224;-80
2024/04/03 17:41:30;;;;;;;1.30;1.30;;;13.00;99.90;;;;;;10481187;28;20701;-77
2024/04/03 17:46:32;;;;;;;0.93;0.93;;;12.90;99.90;;;;;;10480051;28;20220;-77
2024/04/03 17:51:37;;;;;;;1.30;1.30;;;13.00;99.90;;;;;;10486513;28;20196;-77
2024/04/03 17:56:39;;;;;;;1.10;1.10;;;13.00;99.90;;;;;;10477581;28;20224;-77
2024/04/03 18:01:42;;;;;;;1.10;1.10;;;13.00;99.90;;;;;;10477956;28;20260;-77
2024/04/03 18:06:45;;;;;;;1.10;1.10;;;12.90;99.90;;;;;;10482269;28;20225;-77
2024/04/03 18:11:48;;;;;;;0.90;0.90;;;12.90;99.90;;;;;;10479204;28;20195;-77
2024/04/03 18:16:50;;;;;;;0.70;0.70;;;12.90;99.90;;;;;;10482039;28;20650;-76
2024/04/03 18:21:54;;;;;;;0.90;0.90;;;13.00;99.90;;;;;;10488277;28;20278;-77
2024/04/03 18:26:56;;;;;;;1.00;1.00;;;13.00;99.90;;;;;;10481591;28;20216;-76
2024/04/03 18:31:59;;;;;;;0.83;0.83;;;13.00;99.90;;;;;;10490933;28;20208;-78
2024/04/03 18:37:03;;;;;;;0.90;0.90;;;13.00;99.90;;;;;;10485854;28;20235;-76
2024/04/03 18:42:06;;;;;;;0.50;0.50;;;13.00;99.90;;;;;;10490506;28;20220;-77
2024/04/03 18:47:09;;;;;;;0.90;0.90;;;13.00;99.90;;;;;;10478171;28;20216;-78
2024/04/03 18:52:13;;;;;;;0.77;0.77;;;13.00;99.90;;;;;;10467000;28;20204;-77
2024/04/03 18:57:15;;;;;;;0.70;0.70;;;13.00;99.90;;;;;;10463032;28;20228;-79
2024/04/03 19:02:18;;;;;;;0.90;0.90;;;13.00;99.90;;;;;;10481728;28;20254;-77
2024/04/03 19:07:22;;;;;;;0.87;0.87;;;13.00;99.90;;;;;;10481859;22;20233;-76
2024/04/03 19:12:24;;;;;;;0.80;0.80;;;13.00;99.90;;;;;;10433121;28;20263;-76
2024/04/03 19:17:27;;;;;;;0.80;0.80;;;13.00;99.90;;;;;;10441380;28;20283;-77
2024/04/03 19:22:30;;;;;;;0.80;0.80;;;13.00;99.90;;;;;;10419330;28;20220;-77
2024/04/03 19:27:33;;;;;;;1.03;1.03;;;12.90;99.90;;;;;;10439532;28;20217;-76
2024/04/03 19:32:38;;;;;;;0.83;0.83;;;13.00;99.90;;;;;;10446425;28;20202;-77
2024/04/03 19:37:42;;;;;;;0.70;0.70;;;13.00;99.90;;;;;;10443781;28;20290;-77
2024/04/03 19:42:44;;;;;;;0.80;0.80;;;13.00;99.90;;;;;;10447512;28;20292;-77
2024/04/03 19:47:46;;;;;;;0.80;0.80;;;13.10;99.90;;;;;;10439479;28;20739;-77
2024/04/03 19:52:50;;;;;;;0.80;0.80;;;13.10;99.90;;;;;;10448527;28;20197;-76
2024/04/03 19:57:53;;;;;;;0.90;0.90;;;13.10;99.90;;;;;;10421319;28;20282;-77
2024/04/03 20:02:55;;;;;;;0.60;0.60;;;13.00;99.90;;;;;;10405217;28;20291;-76
2024/04/03 20:08:00;;;;;;;0.80;0.80;;;13.10;99.90;;;;;;10436652;28;20763;-76
2024/04/03 20:13:03;;;;;;;0.70;0.70;;;13.10;99.90;;;;;;10428234;28;20201;-77
2024/04/03 20:18:06;;;;;;;0.50;0.50;;;13.10;99.90;;;;;;10445294;28;20224;-76
2024/04/03 20:23:10;;;;;;;0.70;0.70;;;13.10;99.90;;;;;;10433108;28;20214;-77
2024/04/03 20:28:13;;;;;;;0.83;0.83;;;13.10;99.90;;;;;;10424775;28;20229;-76
2024/04/03 20:33:17;;;;;;;0.80;0.80;;;13.10;99.90;;;;;;10431444;28;20255;-77
2024/04/03 20:38:21;;;;;;;0.80;0.80;;;13.10;99.90;;;;;;10402485;28;20235;-77
2024/04/03 20:43:23;;;;;;;0.80;0.80;;;13.10;99.90;;;;;;10452353;28;20377;-76
2024/04/03 20:48:26;;;;;;;0.90;0.90;;;13.10;99.90;;;;;;10452302;28;20228;-76
2024/04/03 20:53:30;;;;;;;0.90;0.90;;;13.10;99.90;;;;;;10421670;28;20197;-76
2024/04/03 20:58:33;;;;;;;0.70;0.70;;;13.10;99.90;;;;;;10411701;28;20237;-76
2024/04/03 21:03:36;;;;;;;0.90;0.90;;;13.10;99.90;;;;;;10412599;28;20276;-77
2024/04/03 21:08:40;;;;;;;0.80;0.80;;;13.20;99.90;;;;;;10408381;28;20683;-76
2024/04/03 21:13:43;;;;;;;0.93;0.93;;;13.20;99.90;;;;;;10438786;28;20194;-78
2024/04/03 21:18:45;;;;;;;0.90;0.90;;;13.20;99.90;;;;;;10418075;28;20629;-75
2024/04/03 21:23:49;;;;;;;0.87;0.87;;;13.20;99.90;;;;;;10411656;28;20214;-76
2024/04/03 21:28:51;;;;;;;0.80;0.80;;;13.20;99.90;;;;;;10411635;28;20226;-75
2024/04/03 21:33:53;;;;;;;0.50;0.50;;;13.30;99.90;;;;;;10411043;28;20577;-75
2024/04/03 21:38:57;;;;;;;0.50;0.50;;;13.30;99.90;;;;;;10410756;28;20284;-75
2024/04/03 21:43:59;;;;;;;0.67;0.67;;;13.20;99.90;;;;;;10410668;28;20824;-76
2024/04/03 21:49:02;;;;;;;0.50;0.50;;;13.30;99.90;;;;;;10410515;28;20229;-75
2024/04/03 21:54:06;;;;;;;0.60;0.60;;;13.30;99.90;;;;;;10409622;28;20757;-75
2024/04/03 21:59:09;;;;;;;0.60;0.60;;;13.20;99.90;;;;;;10409613;28;20221;-75
2024/04/03 22:04:11;;;;;;;0.50;0.50;;;13.20;99.90;;;;;;10410646;28;20198;-76
2024/04/03 22:09:18;;;;;;;0.70;0.70;;;13.20;99.90;;;;;;10409310;28;20228;-75
2024/04/03 22:14:20;;;;;;;0.60;0.60;;;13.20;99.90;;;;;;10409910;28;20186;-75
2024/04/03 22:19:22;;;;;;;0.50;0.50;;;13.20;99.90;;;;;;10403975;28;20225;-76
2024/04/03 22:24:26;;;;;;;0.60;0.60;;;13.20;99.90;;;;;;10409213;28;20202;-77
2024/04/03 22:29:28;;;;;;;0.50;0.50;;;13.20;99.90;;;;;;10409391;28;20536;-75
2024/04/03 22:34:31;;;;;;;0.70;0.70;;;13.20;99.90;;;;;;10409045;28;20735;-75
2024/04/03 22:39:35;;;;;;;0.60;0.60;;;13.20;99.90;;;;;;10386283;28;20214;-75
2024/04/03 22:44:38;;;;;;;0.60;0.60;;;13.20;99.90;;;;;;10406743;28;20204;-73
2024/04/03 22:49:40;;;;;;;0.60;0.60;;;13.20;99.90;;;;;;10408329;28;20731;-75
2024/04/03 22:54:44;;;;;;;0.60;0.60;;;13.20;99.90;;;;;;10408302;28;20206;-76
2024/04/03 22:59:47;;;;;;;0.80;0.80;;;13.10;99.90;;;;;;10407953;28;20218;-75
2024/04/03 23:04:51;;;;;;;0.60;0.60;;;13.10;99.90;;;;;;10408405;28;20247;-76
2024/04/03 23:09:55;;;;;;;0.70;0.70;;;13.10;99.90;;;;;;10408291;28;20645;-75
2024/04/03 23:14:57;;;;;;;0.80;0.80;;;13.10;99.90;;;;;;10407522;28;20205;-76
2024/04/03 23:20:02;;;;;;;0.80;0.80;;;13.10;99.90;;;;;;10406930;28;20221;-75
2024/04/03 23:25:06;;;;;;;0.60;0.60;;;13.20;99.90;;;;;;10416071;28;20547;-75
2024/04/03 23:30:09;;;;;;;0.70;0.70;;;13.20;99.90;;;;;;10410586;28;20225;-76
2024/04/03 23:35:12;;;;;;;0.60;0.60;;;13.30;99.90;;;;;;10415697;28;20220;-75
2024/04/03 23:40:15;;;;;;;0.80;0.80;;;13.30;99.90;;;;;;10415452;28;20218;-76
2024/04/03 23:45:18;;;;;;;0.70;0.70;;;13.30;99.90;;;;;;10397806;28;20196;-73
2024/04/03 23:50:22;;;;;;;0.70;0.70;;;13.30;99.90;;;;;;10397436;28;20224;-75
2024/04/03 23:55:25;;;;;;;0.60;0.60;;;13.40;99.90;;;;;;10414979;28;20256;-76
